createdAt,value
2019-05-29T00:00:39.777Z,94553.95
2019-05-29T00:03:12.333Z,94554.45
2019-05-29T00:05:43.498Z,94553.56
2019-05-29T00:08:14.804Z,94553.91
2019-05-29T00:10:46.029Z,94558.31
2019-05-29T00:13:18.497Z,94555.81
2019-05-29T00:15:49.975Z,94559.12
2019-05-29T00:18:21.253Z,94556.88
2019-05-29T00:20:52.215Z,94558.16
2019-05-29T00:23:23.349Z,94558.13
2019-05-29T00:25:55.894Z,94559.48
2019-05-29T00:28:27.027Z,94553.69
2019-05-29T00:30:58.374Z,94547.61
2019-05-29T00:33:29.768Z,94556.23
2019-05-29T00:36:00.792Z,94552.92
2019-05-29T00:38:31.691Z,94553.84
2019-05-29T00:41:02.675Z,94559.19
2019-05-29T00:43:33.713Z,94554.24
2019-05-29T00:46:04.953Z,94542.88
2019-05-29T00:48:35.964Z,94554.13
2019-05-29T00:51:07.037Z,94554.13
2019-05-29T00:53:38.224Z,94558.67
2019-05-29T00:56:10.529Z,94564.39
2019-05-29T00:58:41.644Z,94568.72
2019-05-29T01:01:13.379Z,94566.70
2019-05-29T01:03:44.402Z,94567.98
2019-05-29T01:06:16.056Z,94569.85
2019-05-29T01:08:48.303Z,94569.67
2019-05-29T01:11:19.157Z,94569.67
2019-05-29T01:13:50.275Z,94571.20
2019-05-29T01:16:21.787Z,94570.83
2019-05-29T01:18:54.442Z,94570.83
2019-05-29T01:21:25.655Z,94567.70
2019-05-29T01:23:56.914Z,94573.11
2019-05-29T01:26:28.050Z,94576.78
2019-05-29T01:28:59.000Z,94570.30
2019-05-29T01:31:29.858Z,94581.36
2019-05-29T01:34:00.882Z,94579.95
2019-05-29T01:36:31.738Z,94580.46
2019-05-29T01:39:02.685Z,94583.50
2019-05-29T01:41:33.783Z,94585.11
2019-05-29T01:44:05.075Z,94576.30
2019-05-29T01:46:36.144Z,94576.30
2019-05-29T01:49:07.202Z,94588.78
2019-05-29T01:51:38.510Z,94583.61
2019-05-29T01:54:09.588Z,94586.23
2019-05-29T01:56:40.873Z,94590.28
2019-05-29T01:59:11.816Z,94591.50
2019-05-29T02:01:43.096Z,94594.95
2019-05-29T02:04:14.150Z,94592.31
2019-05-29T02:06:45.217Z,94591.50
2019-05-29T02:09:16.134Z,94591.50
2019-05-29T02:11:47.609Z,94592.19
2019-05-29T02:14:18.561Z,94598.05
2019-05-29T02:16:49.986Z,94594.61
2019-05-29T02:19:21.879Z,94601.83
2019-05-29T02:21:54.097Z,94602.50
2019-05-29T02:24:25.481Z,94600.92
2019-05-29T02:26:56.780Z,94608.95
2019-05-29T02:29:28.061Z,94608.95
2019-05-29T02:31:59.394Z,94610.70
2019-05-29T02:34:30.633Z,94608.76
2019-05-29T02:37:01.944Z,94608.76
2019-05-29T02:39:33.406Z,94606.55
2019-05-29T02:42:05.086Z,94609.30
2019-05-29T02:44:36.527Z,94609.30
2019-05-29T02:47:07.638Z,94612.37
2019-05-29T02:49:38.773Z,94623.42
2019-05-29T02:52:09.936Z,94620.19
2019-05-29T02:54:41.233Z,94629.48
2019-05-29T02:57:12.578Z,94629.48
2019-05-29T02:59:43.820Z,94642.31
2019-05-29T03:02:14.869Z,94646.39
2019-05-29T03:04:45.970Z,94646.39
2019-05-29T03:07:17.354Z,94650.30
2019-05-29T03:09:48.940Z,94628.37
2019-05-29T03:12:20.164Z,94638.17
2019-05-29T03:14:51.281Z,94644.47
2019-05-29T03:17:23.638Z,94644.47
2019-05-29T03:19:54.943Z,94650.97
2019-05-29T03:22:26.314Z,94652.50
2019-05-29T03:24:57.562Z,94652.50
2019-05-29T03:27:29.881Z,94653.19
2019-05-29T03:30:00.944Z,94655.61
2019-05-29T03:32:42.375Z,94655.69
2019-05-29T03:35:06.318Z,94660.84
2019-05-29T03:37:38.813Z,94653.77
2019-05-29T03:40:10.403Z,94661.36
2019-05-29T03:42:41.238Z,94657.05
2019-05-29T03:45:12.644Z,94663.23
2019-05-29T03:47:44.748Z,94663.23
2019-05-29T03:50:16.362Z,94658.05
2019-05-29T03:52:47.777Z,94653.19
2019-05-29T03:55:18.709Z,94654.33
2019-05-29T03:57:49.994Z,94663.13
2019-05-29T04:00:21.256Z,94663.94
2019-05-29T04:02:52.133Z,94663.56
2019-05-29T04:05:23.004Z,94657.59
2019-05-29T04:07:53.934Z,94661.65
2019-05-29T04:10:32.993Z,94666.72
2019-05-29T04:13:04.480Z,94667.23
2019-05-29T04:15:36.967Z,94672.77
2019-05-29T04:18:08.590Z,94671.25
2019-05-29T04:20:39.690Z,94670.95
2019-05-29T04:23:10.841Z,94672.00
2019-05-29T04:25:43.006Z,94664.06
2019-05-29T04:28:14.216Z,94651.87
2019-05-29T04:30:45.394Z,94672.27
2019-05-29T04:33:16.332Z,94672.52
2019-05-29T04:35:47.250Z,94672.52
2019-05-29T04:38:18.166Z,94678.77
2019-05-29T04:40:49.243Z,94687.07
2019-05-29T04:43:20.142Z,94687.85
2019-05-29T04:45:50.981Z,94691.91
2019-05-29T04:48:21.890Z,94687.76
2019-05-29T04:50:52.707Z,94683.98
2019-05-29T04:53:23.679Z,94686.27
2019-05-29T04:55:54.607Z,94694.68
2019-05-29T04:58:25.572Z,94692.11
2019-05-29T05:00:59.396Z,94689.78
2019-05-29T05:03:29.173Z,94692.31
2019-05-29T05:06:00.088Z,94692.12
2019-05-29T05:08:31.273Z,94695.52
2019-05-29T05:11:02.617Z,94687.45
2019-05-29T05:13:33.533Z,94692.89
2019-05-29T05:16:04.954Z,94686.06
2019-05-29T05:18:35.925Z,94688.06
2019-05-29T05:21:06.820Z,94691.82
2019-05-29T05:23:38.231Z,94692.81
2019-05-29T05:26:09.734Z,94680.94
2019-05-29T05:28:43.757Z,94682.22
2019-05-29T05:31:13.702Z,94681.78
2019-05-29T05:33:45.078Z,94682.91
2019-05-29T05:36:16.183Z,94684.74
2019-05-29T05:38:47.316Z,94678.12
2019-05-29T05:41:18.666Z,94681.95
2019-05-29T05:43:49.952Z,94683.90
2019-05-29T05:46:24.686Z,94691.05
2019-05-29T05:48:54.056Z,94685.58
2019-05-29T05:51:25.345Z,94685.68
2019-05-29T05:53:56.456Z,94687.09
2019-05-29T05:56:27.540Z,94690.55
2019-05-29T05:58:58.617Z,94690.86
2019-05-29T06:01:29.560Z,94696.22
2019-05-29T06:04:00.407Z,94690.67
2019-05-29T06:06:31.988Z,94697.01
2019-05-29T06:09:03.195Z,94696.81
2019-05-29T06:11:34.253Z,94700.92
2019-05-29T06:14:05.303Z,94702.58
2019-05-29T06:16:36.517Z,94710.09
2019-05-29T06:19:07.910Z,94710.22
2019-05-29T06:21:38.865Z,94712.80
2019-05-29T06:24:10.104Z,94705.95
2019-05-29T06:26:41.174Z,94710.34
2019-05-29T06:29:13.289Z,94706.13
2019-05-29T06:31:44.323Z,94707.42
2019-05-29T06:34:15.965Z,94705.56
2019-05-29T06:36:48.319Z,94709.86
2019-05-29T06:39:19.512Z,94714.30
2019-05-29T06:41:50.390Z,94714.22
2019-05-29T06:44:21.477Z,94712.38
2019-05-29T06:46:52.628Z,94713.64
2019-05-29T06:49:23.962Z,94711.06
2019-05-29T06:51:55.298Z,94719.03
2019-05-29T06:54:26.685Z,94715.76
2019-05-29T06:56:58.034Z,94718.97
2019-05-29T06:59:29.325Z,94718.42
2019-05-29T07:02:00.342Z,94715.66
2019-05-29T07:04:31.453Z,94714.80
2019-05-29T07:07:02.674Z,94721.33
2019-05-29T07:09:34.094Z,94711.70
2019-05-29T07:12:05.157Z,94711.70
2019-05-29T07:14:36.506Z,94722.20
2019-05-29T07:17:08.106Z,94721.16
2019-05-29T07:19:54.340Z,94718.29
2019-05-29T07:22:12.099Z,94714.55
2019-05-29T07:24:44.935Z,94712.61
2019-05-29T07:27:15.934Z,94712.50
2019-05-29T07:29:47.448Z,94714.78
2019-05-29T07:32:18.768Z,94721.09
2019-05-29T07:35:02.697Z,94708.23
2019-05-29T07:37:22.713Z,94716.24
2019-05-29T07:39:53.872Z,94708.96
2019-05-29T07:42:25.187Z,94712.33
2019-05-29T07:44:56.445Z,94709.83
2019-05-29T07:47:27.504Z,94717.63
2019-05-29T07:49:58.597Z,94709.11
2019-05-29T07:52:29.714Z,94712.10
2019-05-29T07:55:00.775Z,94709.54
2019-05-29T07:57:32.811Z,94703.11
2019-05-29T08:00:04.089Z,94708.59
2019-05-29T08:02:36.490Z,94706.86
2019-05-29T08:05:08.172Z,94708.31
2019-05-29T08:07:39.483Z,94710.41
2019-05-29T08:10:12.560Z,94709.51
2019-05-29T08:12:48.435Z,94708.45
2019-05-29T08:15:16.445Z,94709.48
2019-05-29T08:17:48.209Z,94711.14
2019-05-29T08:20:19.707Z,94714.91
2019-05-29T08:22:51.282Z,94714.88
2019-05-29T08:25:22.581Z,94704.16
2019-05-29T08:27:53.837Z,94706.27
2019-05-29T08:30:24.846Z,94713.19
2019-05-29T08:32:55.945Z,94713.14
2019-05-29T08:35:27.369Z,94708.64
2019-05-29T08:37:58.614Z,94701.75
2019-05-29T08:40:30.043Z,94705.94
2019-05-29T08:43:01.896Z,94703.61
2019-05-29T08:45:33.354Z,94698.22
2019-05-29T08:48:04.728Z,94697.09
2019-05-29T08:50:35.837Z,94696.53
2019-05-29T08:53:09.159Z,94688.75
2019-05-29T08:55:40.004Z,94688.29
2019-05-29T08:58:11.158Z,94692.88
2019-05-29T09:00:46.573Z,94696.92
2019-05-29T09:03:15.616Z,94684.34
2019-05-29T09:05:46.784Z,94691.30
2019-05-29T09:08:18.068Z,94678.33
2019-05-29T09:10:49.668Z,94682.08
2019-05-29T09:13:20.873Z,94685.98
2019-05-29T09:15:51.873Z,94689.36
2019-05-29T09:18:25.549Z,94691.75
2019-05-29T09:21:03.178Z,94682.08
2019-05-29T09:23:30.816Z,94687.74
2019-05-29T09:26:13.940Z,94685.24
2019-05-29T09:28:34.446Z,94679.02
2019-05-29T09:31:05.479Z,94679.17
2019-05-29T09:33:36.456Z,94678.59
2019-05-29T09:36:07.520Z,94676.27
2019-05-29T09:38:38.590Z,94682.39
2019-05-29T09:41:09.579Z,94683.55
2019-05-29T09:43:57.760Z,94680.56
2019-05-29T09:46:13.586Z,94685.95
2019-05-29T09:48:49.883Z,94680.55
2019-05-29T09:51:21.524Z,94675.12
2019-05-29T09:53:52.535Z,94673.32
2019-05-29T09:56:24.361Z,94679.51
2019-05-29T09:58:56.334Z,94670.16
2019-05-29T10:01:28.285Z,94671.74
2019-05-29T10:04:01.913Z,94664.50
2019-05-29T10:06:32.290Z,94671.61
2019-05-29T10:09:03.748Z,94672.52
2019-05-29T10:11:35.012Z,94668.23
2019-05-29T10:14:06.478Z,94665.28
2019-05-29T10:16:37.407Z,94666.91
2019-05-29T10:19:08.453Z,94658.07
2019-05-29T10:21:41.328Z,94646.55
2019-05-29T10:24:12.178Z,94653.52
2019-05-29T10:26:43.098Z,94653.19
2019-05-29T10:29:13.971Z,94652.10
2019-05-29T10:31:47.156Z,94654.53
2019-05-29T10:34:17.908Z,94654.55
2019-05-29T10:36:52.663Z,94631.27
2019-05-29T10:39:21.755Z,94647.45
2019-05-29T10:41:53.148Z,94640.97
2019-05-29T10:44:24.481Z,94638.42
2019-05-29T10:46:56.592Z,94624.41
2019-05-29T10:49:28.141Z,94640.22
2019-05-29T10:52:14.020Z,94633.91
2019-05-29T10:54:32.344Z,94632.91
2019-05-29T10:57:03.594Z,94636.38
2019-05-29T10:59:34.716Z,94638.20
2019-05-29T11:02:06.159Z,94641.94
2019-05-29T11:04:37.399Z,94647.82
2019-05-29T11:07:08.502Z,94636.39
2019-05-29T11:09:44.383Z,94639.30
2019-05-29T11:12:12.494Z,94639.61
2019-05-29T11:14:43.894Z,94635.84
2019-05-29T11:17:14.868Z,94633.44
2019-05-29T11:19:47.161Z,94636.88
2019-05-29T11:22:26.194Z,94637.33
2019-05-29T11:24:52.353Z,94631.48
2019-05-29T11:27:26.057Z,94629.69
2019-05-29T11:29:57.110Z,94634.52
2019-05-29T11:32:28.508Z,94629.66
2019-05-29T11:34:59.747Z,94638.78
2019-05-29T11:37:30.967Z,94628.06
2019-05-29T11:40:03.332Z,94637.19
2019-05-29T11:42:34.480Z,94637.66
2019-05-29T11:45:06.154Z,94625.64
2019-05-29T11:47:37.301Z,94622.95
2019-05-29T11:50:19.101Z,94625.63
2019-05-29T11:52:43.948Z,94623.80
2019-05-29T11:55:15.745Z,94622.20
2019-05-29T11:57:46.832Z,94614.95
2019-05-29T12:00:21.139Z,94615.22
2019-05-29T12:02:53.908Z,94610.66
2019-05-29T12:05:26.098Z,94612.76
2019-05-29T12:07:57.604Z,94618.77
2019-05-29T12:10:28.581Z,94627.20
2019-05-29T12:12:59.854Z,94628.53
2019-05-29T12:15:31.055Z,94625.41
2019-05-29T12:18:20.040Z,94620.00
2019-05-29T12:20:35.989Z,94623.27
2019-05-29T12:23:23.010Z,94623.61
2019-05-29T12:25:40.403Z,94616.47
2019-05-29T12:28:13.070Z,94618.67
2019-05-29T12:30:44.622Z,94613.33
2019-05-29T12:33:15.983Z,94616.29
2019-05-29T12:35:50.053Z,94615.47
2019-05-29T12:38:20.137Z,94617.11
2019-05-29T12:40:53.450Z,94614.13
2019-05-29T12:43:27.702Z,94605.56
2019-05-29T12:45:58.045Z,94607.14
2019-05-29T12:48:29.128Z,94611.19
2019-05-29T12:51:00.437Z,94610.92
2019-05-29T12:53:32.682Z,94615.20
2019-05-29T12:56:04.584Z,94602.31
2019-05-29T12:58:35.709Z,94612.46
2019-05-29T13:01:06.860Z,94602.02
2019-05-29T13:03:38.149Z,94602.17
2019-05-29T13:06:09.708Z,94598.88
2019-05-29T13:08:41.327Z,94602.94
2019-05-29T13:11:12.329Z,94604.68
2019-05-29T13:13:43.838Z,94595.34
2019-05-29T13:16:14.743Z,94598.53
2019-05-29T13:18:46.106Z,94600.70
2019-05-29T13:21:17.219Z,94602.30
2019-05-29T13:23:48.503Z,94598.67
2019-05-29T13:26:19.454Z,94592.66
2019-05-29T13:28:50.911Z,94598.40
2019-05-29T13:31:22.203Z,94590.79
2019-05-29T13:33:53.138Z,94595.40
2019-05-29T13:36:24.801Z,94598.98
2019-05-29T13:38:56.045Z,94597.79
2019-05-29T13:41:27.647Z,94599.45
2019-05-29T13:43:58.798Z,94594.13
2019-05-29T13:46:29.909Z,94588.28
2019-05-29T13:49:01.277Z,94584.64
2019-05-29T13:51:32.273Z,94583.04
2019-05-29T13:54:13.299Z,94575.00
2019-05-29T13:56:37.020Z,94579.30
2019-05-29T13:59:08.942Z,94575.03
2019-05-29T14:01:39.822Z,94582.23
2019-05-29T14:04:11.215Z,94587.04
2019-05-29T14:06:42.312Z,94590.53
2019-05-29T14:09:13.419Z,94585.97
2019-05-29T14:11:44.358Z,94589.45
2019-05-29T14:14:15.875Z,94599.33
2019-05-29T14:16:46.860Z,94601.44
2019-05-29T14:19:17.886Z,94595.90
2019-05-29T14:21:49.065Z,94596.45
2019-05-29T14:24:29.092Z,94599.38
2019-05-29T14:26:52.549Z,94593.73
2019-05-29T14:29:23.865Z,94596.17
2019-05-29T14:31:54.842Z,94597.98
2019-05-29T14:34:25.763Z,94617.25
2019-05-29T14:36:56.657Z,94611.59
2019-05-29T14:39:27.888Z,94611.80
2019-05-29T14:41:59.164Z,94613.88
2019-05-29T14:44:30.206Z,94615.52
2019-05-29T14:47:01.828Z,94613.69
2019-05-29T14:49:32.925Z,94612.08
2019-05-29T14:52:04.446Z,94605.14
2019-05-29T14:54:41.662Z,94609.42
2019-05-29T14:57:21.323Z,94607.82
2019-05-29T14:59:41.202Z,94605.16
2019-05-29T15:02:21.590Z,94616.72
2019-05-29T15:04:44.603Z,94621.27
2019-05-29T15:07:16.878Z,94625.30
2019-05-29T15:09:48.136Z,94626.80
2019-05-29T15:12:19.287Z,94625.69
2019-05-29T15:14:50.448Z,94623.79
2019-05-29T15:17:21.466Z,94625.34
2019-05-29T15:19:52.522Z,94619.42
2019-05-29T15:22:23.482Z,94622.57
2019-05-29T15:25:04.329Z,94633.80
2019-05-29T15:27:27.217Z,94635.87
2019-05-29T15:29:58.409Z,94641.09
2019-05-29T15:32:29.566Z,94636.66
2019-05-29T15:35:00.544Z,94643.06
2019-05-29T15:37:31.511Z,94644.31
2019-05-29T15:40:02.408Z,94653.82
2019-05-29T15:42:33.395Z,94650.08
2019-05-29T15:45:04.695Z,94647.58
2019-05-29T15:47:35.624Z,94641.80
2019-05-29T15:50:07.136Z,94648.89
2019-05-29T15:52:38.492Z,94649.26
2019-05-29T15:55:24.602Z,94659.22
2019-05-29T15:57:43.476Z,94657.06
2019-05-29T16:00:15.700Z,94672.19
2019-05-29T16:02:48.959Z,94670.23
2019-05-29T16:05:19.441Z,94674.45
2019-05-29T16:07:50.640Z,94681.77
2019-05-29T16:10:22.022Z,94684.28
2019-05-29T16:12:53.191Z,94689.53
2019-05-29T16:15:24.078Z,94688.30
2019-05-29T16:17:54.941Z,94688.37
2019-05-29T16:20:26.149Z,94691.81
2019-05-29T16:22:57.063Z,94697.78
2019-05-29T16:25:39.564Z,94704.88
2019-05-29T16:28:00.465Z,94703.44
2019-05-29T16:30:31.783Z,94703.45
2019-05-29T16:33:02.600Z,94701.07
2019-05-29T16:35:37.282Z,94704.25
2019-05-29T16:38:06.788Z,94702.03
2019-05-29T16:40:38.146Z,94705.15
2019-05-29T16:43:09.196Z,94710.63
2019-05-29T16:45:40.389Z,94714.00
2019-05-29T16:48:12.908Z,94711.47
2019-05-29T16:50:44.155Z,94719.91
2019-05-29T16:53:16.684Z,94713.16
2019-05-29T16:55:53.718Z,94718.55
2019-05-29T16:58:21.296Z,94719.70
2019-05-29T17:00:52.393Z,94719.70
2019-05-29T17:03:23.908Z,94716.35
2019-05-29T17:05:55.194Z,94719.02
2019-05-29T17:08:27.190Z,94716.57
2019-05-29T17:10:58.445Z,94727.09
2019-05-29T17:13:29.548Z,94732.55
2019-05-29T17:16:00.760Z,94724.72
2019-05-29T17:18:31.637Z,94724.16
2019-05-29T17:21:03.075Z,94730.70
2019-05-29T17:23:34.375Z,94736.52
2019-05-29T17:26:10.512Z,94737.12
2019-05-29T17:28:38.494Z,94749.82
2019-05-29T17:31:09.632Z,94748.45
2019-05-29T17:33:40.654Z,94761.44
2019-05-29T17:36:12.191Z,94758.28
2019-05-29T17:38:43.434Z,94766.73
2019-05-29T17:41:15.228Z,94769.20
2019-05-29T17:43:46.610Z,94778.30
2019-05-29T17:46:17.616Z,94778.17
2019-05-29T17:48:48.692Z,94779.95
2019-05-29T17:51:19.841Z,94776.84
2019-05-29T17:53:52.208Z,94782.61
2019-05-29T17:56:34.565Z,94786.59
2019-05-29T17:58:56.362Z,94789.69
2019-05-29T18:01:30.541Z,94788.88
2019-05-29T18:04:00.081Z,94781.07
2019-05-29T18:06:30.979Z,94783.92
2019-05-29T18:09:02.022Z,94789.62
2019-05-29T18:11:34.928Z,94790.38
2019-05-29T18:14:07.721Z,94783.95
2019-05-29T18:16:39.031Z,94790.66
2019-05-29T18:19:10.310Z,94798.91
2019-05-29T18:21:41.474Z,94804.47
2019-05-29T18:24:12.508Z,94807.38
2019-05-29T18:26:47.076Z,94815.48
2019-05-29T18:29:16.507Z,94817.57
2019-05-29T18:31:47.520Z,94819.19
2019-05-29T18:34:18.843Z,94818.33
2019-05-29T18:36:50.212Z,94826.66
2019-05-29T18:39:22.173Z,94839.84
2019-05-29T18:41:53.168Z,94847.37
2019-05-29T18:44:24.854Z,94859.02
2019-05-29T18:46:56.162Z,94866.02
2019-05-29T18:49:28.486Z,94869.19
2019-05-29T18:52:00.652Z,94875.23
2019-05-29T18:54:33.117Z,94869.86
2019-05-29T18:57:15.312Z,94876.02
2019-05-29T18:59:37.405Z,94880.08
2019-05-29T19:02:08.791Z,94876.19
2019-05-29T19:04:40.109Z,94879.63
2019-05-29T19:07:11.267Z,94888.44
2019-05-29T19:09:42.545Z,94892.05
2019-05-29T19:12:13.788Z,94894.47
2019-05-29T19:14:45.319Z,94895.39
2019-05-29T19:17:16.599Z,94905.27
2019-05-29T19:19:47.769Z,94908.28
2019-05-29T19:22:18.942Z,94909.02
2019-05-29T19:24:50.073Z,94907.70
2019-05-29T19:27:30.956Z,94909.95
2019-05-29T19:29:54.482Z,94908.98
2019-05-29T19:32:25.378Z,94916.41
2019-05-29T19:34:56.503Z,94931.01
2019-05-29T19:37:27.943Z,94935.72
2019-05-29T19:39:59.483Z,94939.82
2019-05-29T19:42:30.517Z,94934.87
2019-05-29T19:45:01.825Z,94944.59
2019-05-29T19:47:32.936Z,94943.86
2019-05-29T19:50:04.817Z,94939.37
2019-05-29T19:52:36.059Z,94939.24
2019-05-29T19:55:07.366Z,94957.77
2019-05-29T19:57:54.664Z,94956.05
2019-05-29T20:00:13.661Z,94957.67
2019-05-29T20:02:44.903Z,94958.52
2019-05-29T20:05:16.308Z,94964.58
2019-05-29T20:07:47.685Z,94963.87
2019-05-29T20:10:19.032Z,94962.97
2019-05-29T20:12:50.066Z,94965.20
2019-05-29T20:15:21.099Z,94964.02
2019-05-29T20:17:52.157Z,94966.45
2019-05-29T20:20:23.182Z,94971.82
2019-05-29T20:22:54.294Z,94979.45
2019-05-29T20:25:25.310Z,94978.31
2019-05-29T20:28:05.940Z,94969.70
2019-05-29T20:30:30.295Z,94968.16
2019-05-29T20:33:01.239Z,94972.85
2019-05-29T20:35:32.782Z,94975.01
2019-05-29T20:38:06.479Z,94974.78
2019-05-29T20:40:37.338Z,94979.48
2019-05-29T20:43:08.363Z,94981.73
2019-05-29T20:45:39.800Z,94979.62
2019-05-29T20:48:11.547Z,94987.56
2019-05-29T20:50:43.300Z,94994.44
2019-05-29T20:53:14.551Z,94994.86
2019-05-29T20:55:45.594Z,94994.44
2019-05-29T20:58:24.639Z,95003.41
2019-05-29T21:00:49.353Z,94997.91
2019-05-29T21:03:20.496Z,95004.42
2019-05-29T21:05:51.778Z,95007.45
2019-05-29T21:08:22.969Z,95020.39
2019-05-29T21:10:54.218Z,95015.61
2019-05-29T21:13:25.285Z,95018.77
2019-05-29T21:15:56.408Z,95021.69
2019-05-29T21:18:27.590Z,95018.94
2019-05-29T21:20:58.836Z,95022.09
2019-05-29T21:23:29.738Z,95008.69
2019-05-29T21:26:00.566Z,95019.36
2019-05-29T21:28:40.903Z,95019.36
2019-05-29T21:31:04.183Z,95025.23
2019-05-29T21:33:35.758Z,95036.03
2019-05-29T21:36:06.804Z,95039.48
2019-05-29T21:38:38.041Z,95029.63
2019-05-29T21:41:09.162Z,95025.14
2019-05-29T21:43:40.611Z,95022.62
2019-05-29T21:46:11.566Z,95033.09
2019-05-29T21:48:43.342Z,95034.82
2019-05-29T21:51:14.328Z,95022.20
2019-05-29T21:53:45.530Z,95030.14
2019-05-29T21:56:16.503Z,95020.98
2019-05-29T21:59:02.690Z,95023.33
2019-05-29T22:01:21.426Z,95032.37
2019-05-29T22:03:52.899Z,95028.22
2019-05-29T22:06:24.097Z,95029.73
2019-05-29T22:08:55.376Z,95019.97
2019-05-29T22:11:26.378Z,95026.58
2019-05-29T22:13:58.529Z,95035.81
2019-05-29T22:16:29.586Z,95037.23
2019-05-29T22:19:03.803Z,95033.09
2019-05-29T22:21:33.672Z,95016.93
2019-05-29T22:24:04.823Z,95025.75
2019-05-29T22:26:35.841Z,95019.87
2019-05-29T22:29:18.106Z,95027.88
2019-05-29T22:31:39.589Z,95026.98
2019-05-29T22:34:11.756Z,95031.36
2019-05-29T22:36:43.001Z,95033.17
2019-05-29T22:39:14.429Z,95033.80
2019-05-29T22:41:45.630Z,95032.27
2019-05-29T22:44:16.936Z,95030.73
2019-05-29T22:46:47.951Z,95040.20
2019-05-29T22:49:20.161Z,95046.52
2019-05-29T22:51:51.681Z,95050.56
2019-05-29T22:54:23.113Z,95056.27
2019-05-29T22:56:54.192Z,95058.80
2019-05-29T22:59:31.895Z,95061.74
2019-05-29T23:01:58.242Z,95062.85
2019-05-29T23:04:29.143Z,95062.25
2019-05-29T23:07:00.462Z,95065.50
2019-05-29T23:09:31.519Z,95063.58
2019-05-29T23:12:02.707Z,95069.45
2019-05-29T23:14:33.953Z,95060.54
2019-05-29T23:17:05.369Z,95054.32
2019-05-29T23:19:36.720Z,95061.13
2019-05-29T23:22:07.866Z,95058.20
2019-05-29T23:24:39.022Z,95064.08
2019-05-29T23:27:10.368Z,95063.06
2019-05-29T23:29:48.767Z,95063.27
2019-05-29T23:32:14.226Z,95066.72
2019-05-29T23:34:45.208Z,95061.64
2019-05-29T23:37:16.167Z,95067.33
2019-05-29T23:39:47.331Z,95062.34
2019-05-29T23:42:18.303Z,95069.37
2019-05-29T23:44:51.986Z,95074.35
2019-05-29T23:47:22.273Z,95071.41
2019-05-29T23:49:53.569Z,95075.97
2019-05-29T23:52:24.681Z,95073.02
2019-05-29T23:54:56.045Z,95067.23
2019-05-29T23:57:27.193Z,95067.14
